createdAt,value
2017-12-12T00:01:56.860Z,97387.33
2017-12-12T00:04:24.348Z,97379.41
2017-12-12T00:06:51.802Z,97368.97
2017-12-12T00:09:19.255Z,97370.17
2017-12-12T00:11:46.726Z,97360.61
2017-12-12T00:14:14.333Z,97357.52
2017-12-12T00:16:41.852Z,97382.55
2017-12-12T00:19:09.336Z,97369.41
2017-12-12T00:21:36.795Z,97372.39
2017-12-12T00:24:04.343Z,97384.52
2017-12-12T00:26:31.867Z,97371.84
2017-12-12T00:28:59.307Z,97377.73
2017-12-12T00:31:26.787Z,97369.31
2017-12-12T00:33:54.235Z,97368.66
2017-12-12T00:36:21.711Z,97357.95
2017-12-12T00:38:49.169Z,97365.64
2017-12-12T00:41:16.611Z,97381.58
2017-12-12T00:43:44.081Z,97381.27
2017-12-12T00:46:11.575Z,97384.84
2017-12-12T00:48:39.039Z,97383.28
2017-12-12T00:51:06.507Z,97375.94
2017-12-12T00:53:33.947Z,97370.42
2017-12-12T00:56:01.466Z,97382.55
2017-12-12T00:58:28.979Z,97375.38
2017-12-12T01:00:56.480Z,97374.38
2017-12-12T01:03:23.934Z,97370.83
2017-12-12T01:05:51.409Z,97353.92
2017-12-12T01:08:18.879Z,97348.41
2017-12-12T01:10:46.326Z,97331.71
2017-12-12T01:13:13.858Z,97340.34
2017-12-12T01:15:41.305Z,97332.16
2017-12-12T01:18:08.753Z,97346.23
2017-12-12T01:20:36.243Z,97335.97
2017-12-12T01:23:03.727Z,97354.13
2017-12-12T01:25:31.172Z,97342.80
2017-12-12T01:27:58.624Z,97334.79
2017-12-12T01:30:26.180Z,97332.98
2017-12-12T01:32:53.654Z,97342.38
2017-12-12T01:35:21.092Z,97346.80
2017-12-12T01:37:48.560Z,97344.21
2017-12-12T01:40:16.056Z,97349.55
2017-12-12T01:42:43.535Z,97366.22
2017-12-12T01:45:11.001Z,97369.19
2017-12-12T01:47:38.476Z,97361.01
2017-12-12T01:50:05.916Z,97372.47
2017-12-12T01:52:33.409Z,97380.67
2017-12-12T01:55:01.816Z,97383.88
2017-12-12T01:57:29.272Z,97394.27
2017-12-12T01:59:56.747Z,97380.05
2017-12-12T02:02:24.197Z,97405.66
2017-12-12T02:04:51.652Z,97406.66
2017-12-12T02:07:19.150Z,97421.73
2017-12-12T02:09:46.627Z,97439.67
2017-12-12T02:12:14.104Z,97431.94
2017-12-12T02:14:41.552Z,97453.48
2017-12-12T02:17:09.012Z,97483.57
2017-12-12T02:19:36.501Z,97490.30
2017-12-12T02:22:03.979Z,97501.09
2017-12-12T02:24:31.422Z,97487.94
2017-12-12T02:26:59.518Z,97512.21
2017-12-12T02:29:26.969Z,97504.94
2017-12-12T02:31:54.848Z,97529.25
2017-12-12T02:34:22.300Z,97533.13
2017-12-12T02:36:49.791Z,97534.13
2017-12-12T02:39:17.308Z,97551.85
2017-12-12T02:41:44.784Z,97558.42
2017-12-12T02:44:12.264Z,97563.25
2017-12-12T02:46:39.789Z,97591.78
2017-12-12T02:49:07.272Z,97588.32
2017-12-12T02:51:34.771Z,97593.86
2017-12-12T02:54:02.299Z,97586.91
2017-12-12T02:56:30.179Z,97587.81
2017-12-12T02:58:57.697Z,97598.31
2017-12-12T03:01:25.155Z,97592.51
2017-12-12T03:03:52.601Z,97599.64
2017-12-12T03:06:20.071Z,97613.28
2017-12-12T03:08:47.533Z,97626.00
2017-12-12T03:11:14.983Z,97630.70
2017-12-12T03:13:42.435Z,97641.11
2017-12-12T03:16:09.977Z,97653.27
2017-12-12T03:18:37.449Z,97667.52
2017-12-12T03:21:04.907Z,97680.62
2017-12-12T03:23:32.402Z,97685.89
2017-12-12T03:25:59.852Z,97685.94
2017-12-12T03:28:27.335Z,97685.78
2017-12-12T03:30:54.833Z,97685.73
2017-12-12T03:33:22.280Z,97686.28
2017-12-12T03:35:49.783Z,97698.48
2017-12-12T03:38:17.319Z,97713.97
2017-12-12T03:40:44.819Z,97729.49
2017-12-12T03:43:12.277Z,97737.11
2017-12-12T03:45:39.759Z,97725.48
2017-12-12T03:48:07.227Z,97745.95
2017-12-12T03:50:34.706Z,97756.19
2017-12-12T03:53:02.199Z,97760.25
2017-12-12T03:55:29.724Z,97773.25
2017-12-12T03:57:57.192Z,97775.27
2017-12-12T04:00:25.265Z,97773.59
2017-12-12T04:02:52.725Z,97783.88
2017-12-12T04:05:20.192Z,97777.00
2017-12-12T04:07:47.679Z,97787.52
2017-12-12T04:10:15.175Z,97800.74
2017-12-12T04:12:44.108Z,97807.20
2017-12-12T04:15:12.413Z,97813.63
2017-12-12T04:17:39.876Z,97834.49
2017-12-12T04:20:07.373Z,97850.88
2017-12-12T04:22:34.836Z,97864.53
2017-12-12T04:25:02.356Z,97876.33
2017-12-12T04:27:29.824Z,97921.63
2017-12-12T04:29:57.292Z,97905.44
2017-12-12T04:32:24.771Z,97866.74
2017-12-12T04:34:52.235Z,97902.31
2017-12-12T04:37:19.739Z,97903.05
2017-12-12T04:39:47.212Z,97921.47
2017-12-12T04:42:14.719Z,97908.68
2017-12-12T04:44:42.226Z,97917.62
2017-12-12T04:47:09.708Z,97938.42
2017-12-12T04:49:37.171Z,97943.09
2017-12-12T04:52:04.627Z,97961.45
2017-12-12T04:54:32.114Z,97962.30
2017-12-12T04:56:59.657Z,97978.36
2017-12-12T04:59:27.128Z,97990.00
2017-12-12T05:01:54.587Z,98022.32
2017-12-12T05:04:22.128Z,98000.17
2017-12-12T05:06:50.250Z,98038.33
2017-12-12T05:09:17.754Z,98017.66
2017-12-12T05:11:45.212Z,98027.20
2017-12-12T05:14:12.836Z,98038.75
2017-12-12T05:16:40.328Z,98040.77
2017-12-12T05:19:07.894Z,98057.69
2017-12-12T05:21:35.355Z,98081.98
2017-12-12T05:24:02.823Z,98069.73
2017-12-12T05:26:30.406Z,98089.88
2017-12-12T05:28:57.860Z,98104.37
2017-12-12T05:31:25.315Z,98106.69
2017-12-12T05:33:52.765Z,98095.36
2017-12-12T05:36:20.229Z,98124.39
2017-12-12T05:38:47.679Z,98123.45
2017-12-12T05:41:15.123Z,98126.61
2017-12-12T05:43:42.607Z,98134.23
2017-12-12T05:46:10.072Z,98136.36
2017-12-12T05:48:37.567Z,98167.92
2017-12-12T05:51:05.051Z,98164.63
2017-12-12T05:53:32.555Z,98185.08
2017-12-12T05:56:00.023Z,98159.53
2017-12-12T05:58:27.592Z,98162.63
2017-12-12T06:00:55.039Z,98189.81
2017-12-12T06:03:22.512Z,98181.74
2017-12-12T06:05:50.009Z,98190.24
2017-12-12T06:08:17.476Z,98192.71
2017-12-12T06:10:44.940Z,98209.61
2017-12-12T06:13:12.399Z,98194.18
2017-12-12T06:15:39.879Z,98204.58
2017-12-12T06:18:07.318Z,98222.76
2017-12-12T06:20:34.775Z,98241.79
2017-12-12T06:23:02.249Z,98253.34
2017-12-12T06:25:29.710Z,98258.13
2017-12-12T06:27:57.173Z,98271.16
2017-12-12T06:30:24.892Z,98282.19
2017-12-12T06:32:52.355Z,98282.23
2017-12-12T06:35:19.883Z,98290.16
2017-12-12T06:37:47.391Z,98310.12
2017-12-12T06:40:14.948Z,98305.38
2017-12-12T06:42:42.687Z,98320.44
2017-12-12T06:45:10.132Z,98311.11
2017-12-12T06:47:37.580Z,98350.98
2017-12-12T06:50:05.054Z,98315.55
2017-12-12T06:52:33.372Z,98326.88
2017-12-12T06:55:00.834Z,98334.58
2017-12-12T06:57:28.335Z,98344.28
2017-12-12T06:59:55.793Z,98355.19
2017-12-12T07:02:23.240Z,98346.05
2017-12-12T07:04:50.703Z,98347.25
2017-12-12T07:07:18.254Z,98370.59
2017-12-12T07:09:45.692Z,98364.11
2017-12-12T07:12:13.188Z,98375.05
2017-12-12T07:14:40.641Z,98365.07
2017-12-12T07:17:08.105Z,98379.67
2017-12-12T07:19:35.603Z,98385.01
2017-12-12T07:22:03.113Z,98375.00
2017-12-12T07:24:30.605Z,98375.13
2017-12-12T07:26:58.141Z,98389.02
2017-12-12T07:29:25.596Z,98388.65
2017-12-12T07:31:53.073Z,98405.12
2017-12-12T07:34:20.540Z,98403.02
2017-12-12T07:36:48.662Z,98409.43
2017-12-12T07:39:16.368Z,98413.20
2017-12-12T07:41:43.836Z,98407.97
2017-12-12T07:44:11.289Z,98422.11
2017-12-12T07:46:38.826Z,98425.15
2017-12-12T07:49:06.322Z,98423.00
2017-12-12T07:51:33.812Z,98438.47
2017-12-12T07:54:01.300Z,98438.52
2017-12-12T07:56:28.798Z,98433.22
2017-12-12T07:58:56.273Z,98439.97
2017-12-12T08:01:23.816Z,98463.88
2017-12-12T08:03:51.355Z,98468.17
2017-12-12T08:06:18.826Z,98487.16
2017-12-12T08:08:46.310Z,98484.47
2017-12-12T08:11:13.819Z,98479.24
2017-12-12T08:13:41.351Z,98477.42
2017-12-12T08:16:08.814Z,98479.24
2017-12-12T08:18:36.293Z,98473.59
2017-12-12T08:21:03.776Z,98477.86
2017-12-12T08:23:31.249Z,98478.27
2017-12-12T08:25:58.722Z,98479.13
2017-12-12T08:28:26.169Z,98483.23
2017-12-12T08:30:53.633Z,98478.08
2017-12-12T08:33:21.303Z,98480.97
2017-12-12T08:35:48.756Z,98482.89
2017-12-12T08:38:16.306Z,98479.08
2017-12-12T08:40:43.764Z,98495.16
2017-12-12T08:43:11.226Z,98509.78
2017-12-12T08:45:38.684Z,98515.45
2017-12-12T08:48:06.149Z,98522.24
2017-12-12T08:50:33.692Z,98529.54
2017-12-12T08:53:01.162Z,98534.70
2017-12-12T08:55:28.648Z,98530.73
2017-12-12T08:57:56.100Z,98546.03
2017-12-12T09:00:23.708Z,98554.81
2017-12-12T09:02:51.185Z,98547.44
2017-12-12T09:05:18.621Z,98554.63
2017-12-12T09:07:46.083Z,98561.78
2017-12-12T09:10:15.416Z,98569.01
2017-12-12T09:12:43.048Z,98571.98
2017-12-12T09:15:10.532Z,98583.73
2017-12-12T09:17:38.009Z,98590.48
2017-12-12T09:20:05.488Z,98582.67
2017-12-12T09:22:32.968Z,98578.16
2017-12-12T09:25:00.443Z,98587.99
2017-12-12T09:27:28.134Z,98596.34
2017-12-12T09:29:55.660Z,98585.59
2017-12-12T09:32:23.142Z,98585.91
2017-12-12T09:34:50.583Z,98604.93
2017-12-12T09:37:18.031Z,98615.90
2017-12-12T09:39:45.493Z,98618.94
2017-12-12T09:42:12.956Z,98624.82
2017-12-12T09:44:40.421Z,98629.28
2017-12-12T09:47:07.944Z,98628.34
2017-12-12T09:49:35.396Z,98629.56
2017-12-12T09:52:02.851Z,98637.33
2017-12-12T09:54:30.320Z,98635.77
2017-12-12T09:56:57.774Z,98637.60
2017-12-12T09:59:25.254Z,98641.14
2017-12-12T10:01:52.714Z,98641.36
2017-12-12T10:04:20.175Z,98649.98
2017-12-12T10:06:47.642Z,98648.81
2017-12-12T10:09:15.198Z,98650.78
2017-12-12T10:11:42.674Z,98651.48
2017-12-12T10:14:10.163Z,98658.61
2017-12-12T10:16:37.696Z,98662.94
2017-12-12T10:19:05.161Z,98666.11
2017-12-12T10:21:32.637Z,98671.96
2017-12-12T10:24:00.092Z,98659.59
2017-12-12T10:26:27.625Z,98661.86
2017-12-12T10:28:55.117Z,98640.45
2017-12-12T10:31:22.581Z,98642.89
2017-12-12T10:33:50.065Z,98648.16
2017-12-12T10:36:17.568Z,98656.39
2017-12-12T10:38:45.025Z,98658.77
2017-12-12T10:41:12.546Z,98663.53
2017-12-12T10:43:40.512Z,98663.39
2017-12-12T10:46:08.112Z,98662.83
2017-12-12T10:48:35.574Z,98669.63
2017-12-12T10:51:03.076Z,98684.64
2017-12-12T10:53:30.567Z,98683.67
2017-12-12T10:55:58.072Z,98675.63
2017-12-12T10:58:25.552Z,98683.85
2017-12-12T11:00:53.059Z,98693.02
2017-12-12T11:03:20.527Z,98690.67
2017-12-12T11:05:48.003Z,98682.91
2017-12-12T11:08:15.533Z,98693.58
2017-12-12T11:10:43.001Z,98704.66
2017-12-12T11:13:10.495Z,98715.66
2017-12-12T11:15:37.962Z,98735.70
2017-12-12T11:18:05.426Z,98752.09
2017-12-12T11:20:32.889Z,98746.78
2017-12-12T11:23:00.374Z,98749.00
2017-12-12T11:25:27.901Z,98760.34
2017-12-12T11:27:56.108Z,98741.52
2017-12-12T11:30:23.770Z,98739.84
2017-12-12T11:32:51.346Z,98758.69
2017-12-12T11:35:18.832Z,98748.81
2017-12-12T11:37:46.320Z,98750.28
2017-12-12T11:40:13.992Z,98769.20
2017-12-12T11:42:41.646Z,98770.70
2017-12-12T11:45:09.183Z,98787.77
2017-12-12T11:47:36.694Z,98771.34
2017-12-12T11:50:04.182Z,98765.16
2017-12-12T11:52:31.682Z,98763.23
2017-12-12T11:54:59.173Z,98771.84
2017-12-12T11:57:26.692Z,98770.05
2017-12-12T11:59:54.163Z,98770.22
2017-12-12T12:02:23.395Z,98766.78
2017-12-12T12:04:50.884Z,98771.55
2017-12-12T12:07:18.429Z,98768.59
2017-12-12T12:09:45.962Z,98792.88
2017-12-12T12:12:13.447Z,98767.44
2017-12-12T12:14:40.916Z,98767.45
2017-12-12T12:17:08.410Z,98772.48
2017-12-12T12:19:35.887Z,98766.67
2017-12-12T12:22:03.356Z,98783.95
2017-12-12T12:24:30.892Z,98779.03
2017-12-12T12:26:58.366Z,98783.38
2017-12-12T12:29:25.825Z,98810.22
2017-12-12T12:31:53.316Z,98798.27
2017-12-12T12:34:20.785Z,98780.90
2017-12-12T12:36:48.294Z,98829.63
2017-12-12T12:39:15.971Z,98818.82
2017-12-12T12:41:43.428Z,98829.89
2017-12-12T12:44:10.961Z,98836.09
2017-12-12T12:46:38.456Z,98833.86
2017-12-12T12:49:05.965Z,98850.70
2017-12-12T12:51:33.484Z,98851.13
2017-12-12T12:54:01.049Z,98848.11
2017-12-12T12:56:28.588Z,98852.00
2017-12-12T12:58:56.077Z,98880.80
2017-12-12T13:01:23.520Z,98845.46
2017-12-12T13:03:50.995Z,98851.67
2017-12-12T13:06:18.477Z,98842.52
2017-12-12T13:08:45.918Z,98840.75
2017-12-12T13:11:13.400Z,98854.54
2017-12-12T13:13:40.871Z,98853.33
2017-12-12T13:16:08.340Z,98840.32
2017-12-12T13:18:35.810Z,98878.52
2017-12-12T13:21:03.271Z,98877.30
2017-12-12T13:23:30.744Z,98885.58
2017-12-12T13:25:58.228Z,98874.59
2017-12-12T13:28:25.678Z,98866.09
2017-12-12T13:30:53.160Z,98881.38
2017-12-12T13:33:20.620Z,98873.91
2017-12-12T13:35:48.140Z,98886.56
2017-12-12T13:38:15.819Z,98891.52
2017-12-12T13:40:43.298Z,98902.22
2017-12-12T13:43:10.787Z,98901.94
2017-12-12T13:45:38.242Z,98913.37
2017-12-12T13:48:05.704Z,98914.95
2017-12-12T13:50:33.901Z,98919.66
2017-12-12T13:53:01.365Z,98926.23
2017-12-12T13:55:28.844Z,98940.71
2017-12-12T13:57:56.330Z,98951.94
2017-12-12T14:00:23.952Z,98941.64
2017-12-12T14:02:51.448Z,98956.98
2017-12-12T14:05:18.934Z,98954.55
2017-12-12T14:07:46.456Z,98949.93
2017-12-12T14:10:13.991Z,98947.42
2017-12-12T14:12:41.815Z,98951.20
2017-12-12T14:15:09.315Z,98962.30
2017-12-12T14:17:36.772Z,98961.48
2017-12-12T14:20:04.241Z,98981.14
2017-12-12T14:22:31.756Z,98950.73
2017-12-12T14:24:59.222Z,98975.75
2017-12-12T14:27:26.667Z,98994.41
2017-12-12T14:29:54.122Z,98977.02
2017-12-12T14:32:21.592Z,98979.08
2017-12-12T14:34:49.041Z,99060.19
2017-12-12T14:37:16.489Z,98972.45
2017-12-12T14:39:43.965Z,98988.93
2017-12-12T14:42:11.457Z,99016.88
2017-12-12T14:44:38.893Z,99029.80
2017-12-12T14:47:06.355Z,99002.55
2017-12-12T14:49:33.816Z,99011.91
2017-12-12T14:52:01.265Z,99026.78
2017-12-12T14:54:28.729Z,99029.35
2017-12-12T14:56:56.184Z,99044.64
2017-12-12T14:59:23.641Z,99054.75
2017-12-12T15:01:51.097Z,99088.72
2017-12-12T15:04:18.636Z,99075.13
2017-12-12T15:06:46.116Z,99058.67
2017-12-12T15:09:13.633Z,99063.74
2017-12-12T15:11:41.100Z,99082.44
2017-12-12T15:14:08.567Z,99098.61
2017-12-12T15:16:36.082Z,99093.53
2017-12-12T15:19:03.560Z,99094.33
2017-12-12T15:21:31.024Z,99101.17
2017-12-12T15:23:58.503Z,99112.66
2017-12-12T15:26:26.025Z,99105.91
2017-12-12T15:28:53.485Z,99117.30
2017-12-12T15:31:20.986Z,99141.09
2017-12-12T15:33:48.448Z,99158.86
2017-12-12T15:36:15.917Z,99161.83
2017-12-12T15:38:43.382Z,99179.64
2017-12-12T15:41:11.789Z,99169.51
2017-12-12T15:43:39.264Z,99160.20
2017-12-12T15:46:06.745Z,99175.87
2017-12-12T15:48:34.220Z,99167.77
2017-12-12T15:51:01.697Z,99164.41
2017-12-12T15:53:29.156Z,99173.27
2017-12-12T15:55:56.656Z,99185.19
2017-12-12T15:58:24.127Z,99194.97
2017-12-12T16:00:51.582Z,99202.16
2017-12-12T16:03:19.049Z,99216.13
2017-12-12T16:05:46.516Z,99233.12
2017-12-12T16:08:14.262Z,99232.67
2017-12-12T16:10:41.725Z,99238.63
2017-12-12T16:13:09.206Z,99238.20
2017-12-12T16:15:36.659Z,99266.18
2017-12-12T16:18:04.248Z,99255.17
2017-12-12T16:20:31.747Z,99242.03
2017-12-12T16:22:59.240Z,99265.75
2017-12-12T16:25:26.754Z,99235.27
2017-12-12T16:27:54.698Z,99252.63
2017-12-12T16:30:22.199Z,99240.37
2017-12-12T16:32:49.675Z,99234.83
2017-12-12T16:35:17.142Z,99254.34
2017-12-12T16:37:44.632Z,99246.70
2017-12-12T16:40:12.126Z,99243.30
2017-12-12T16:42:39.992Z,99247.09
2017-12-12T16:45:07.459Z,99246.27
2017-12-12T16:47:35.022Z,99271.25
2017-12-12T16:50:02.502Z,99265.31
2017-12-12T16:52:30.243Z,99264.90
2017-12-12T16:54:57.732Z,99274.66
2017-12-12T16:57:25.224Z,99277.59
2017-12-12T16:59:52.676Z,99288.20
2017-12-12T17:02:20.335Z,99291.19
2017-12-12T17:04:47.807Z,99300.08
2017-12-12T17:07:15.258Z,99287.39
2017-12-12T17:09:42.720Z,99311.10
2017-12-12T17:12:10.180Z,99324.66
2017-12-12T17:14:37.633Z,99306.86
2017-12-12T17:17:05.093Z,99319.17
2017-12-12T17:19:32.621Z,99315.33
2017-12-12T17:22:00.101Z,99362.34
2017-12-12T17:24:27.655Z,99335.64
2017-12-12T17:26:55.129Z,99342.02
2017-12-12T17:29:22.599Z,99353.02
2017-12-12T17:31:50.093Z,99323.82
2017-12-12T17:34:17.572Z,99368.72
2017-12-12T17:36:45.072Z,99350.50
2017-12-12T17:39:12.544Z,99354.73
2017-12-12T17:41:40.044Z,99350.08
2017-12-12T17:44:07.493Z,99356.86
2017-12-12T17:46:34.944Z,99366.16
2017-12-12T17:49:02.473Z,99385.21
2017-12-12T17:51:29.954Z,99378.42
2017-12-12T17:53:57.417Z,99396.23
2017-12-12T17:56:24.914Z,99386.92
2017-12-12T17:58:52.373Z,99414.45
2017-12-12T18:01:19.876Z,99407.67
2017-12-12T18:03:47.330Z,99386.47
2017-12-12T18:06:14.913Z,99392.83
2017-12-12T18:08:42.417Z,99386.05
2017-12-12T18:11:09.948Z,99389.02
2017-12-12T18:13:37.451Z,99395.38
2017-12-12T18:16:04.933Z,99393.69
2017-12-12T18:18:32.392Z,99386.48
2017-12-12T18:20:59.884Z,99400.47
2017-12-12T18:23:27.441Z,99398.34
2017-12-12T18:25:54.903Z,99444.50
2017-12-12T18:28:22.372Z,99433.05
2017-12-12T18:30:49.841Z,99435.17
2017-12-12T18:33:17.308Z,99416.95
2017-12-12T18:35:44.774Z,99419.50
2017-12-12T18:38:12.254Z,99419.52
2017-12-12T18:40:39.765Z,99425.86
2017-12-12T18:43:07.244Z,99427.55
2017-12-12T18:45:34.748Z,99439.83
2017-12-12T18:48:02.343Z,99437.72
2017-12-12T18:50:29.836Z,99432.62
2017-12-12T18:52:57.429Z,99414.86
2017-12-12T18:55:25.039Z,99426.70
2017-12-12T18:57:52.592Z,99435.17
2017-12-12T19:00:20.434Z,99433.92
2017-12-12T19:02:48.259Z,99426.72
2017-12-12T19:05:15.908Z,99445.34
2017-12-12T19:07:44.765Z,99450.01
2017-12-12T19:10:12.597Z,99446.19
2017-12-12T19:12:40.454Z,99438.98
2017-12-12T19:15:18.828Z,99452.11
2017-12-12T19:17:46.841Z,99453.38
2017-12-12T19:20:14.700Z,99459.72
2017-12-12T19:22:42.407Z,99455.08
2017-12-12T19:25:10.094Z,99450.84
2017-12-12T19:27:37.839Z,99472.45
2017-12-12T19:30:05.608Z,99468.20
2017-12-12T19:32:33.455Z,99473.70
2017-12-12T19:35:01.319Z,99481.75
2017-12-12T19:37:29.103Z,99498.25
2017-12-12T19:39:56.915Z,99504.60
2017-12-12T19:42:25.136Z,99494.81
2017-12-12T19:44:52.949Z,99496.92
2017-12-12T19:47:21.056Z,99516.42
2017-12-12T19:49:48.895Z,99515.54
2017-12-12T19:52:16.532Z,99510.86
2017-12-12T19:54:44.627Z,99514.70
2017-12-12T19:57:12.331Z,99527.37
2017-12-12T19:59:40.168Z,99529.93
2017-12-12T20:02:07.985Z,99537.52
2017-12-12T20:04:36.657Z,99532.03
2017-12-12T20:07:04.560Z,99535.39
2017-12-12T20:09:32.479Z,99537.09
2017-12-12T20:12:00.343Z,99527.80
2017-12-12T20:14:28.214Z,99535.84
2017-12-12T20:16:56.611Z,99547.30
2017-12-12T20:19:25.632Z,99550.65
2017-12-12T20:21:53.558Z,99559.09
2017-12-12T20:24:21.591Z,99567.55
2017-12-12T20:26:49.305Z,99553.14
2017-12-12T20:29:17.031Z,99556.95
2017-12-12T20:31:44.772Z,99565.84
2017-12-12T20:34:12.576Z,99569.25
2017-12-12T20:36:40.688Z,99590.77
2017-12-12T20:39:08.427Z,99576.39
2017-12-12T20:41:36.153Z,99577.23
2017-12-12T20:44:03.962Z,99586.97
2017-12-12T20:46:31.733Z,99591.99
2017-12-12T20:48:59.603Z,99592.44
2017-12-12T20:51:27.426Z,99595.83
2017-12-12T20:53:55.462Z,99596.31
2017-12-12T20:56:23.454Z,99595.83
2017-12-12T20:58:51.279Z,99598.38
2017-12-12T21:01:19.022Z,99596.25
2017-12-12T21:03:46.827Z,99590.34
2017-12-12T21:06:14.399Z,99583.98
2017-12-12T21:08:42.051Z,99587.75
2017-12-12T21:11:09.640Z,99593.64
2017-12-12T21:13:37.345Z,99599.13
2017-12-12T21:16:05.252Z,99595.75
2017-12-12T21:18:32.886Z,99607.95
2017-12-12T21:21:00.434Z,99602.92
2017-12-12T21:23:27.965Z,99602.18
2017-12-12T21:25:55.549Z,99605.92
2017-12-12T21:28:23.118Z,99608.88
2017-12-12T21:30:50.691Z,99606.27
2017-12-12T21:33:20.408Z,99610.52
2017-12-12T21:35:47.934Z,99613.86
2017-12-12T21:38:15.850Z,99612.16
2017-12-12T21:40:43.342Z,99633.23
2017-12-12T21:43:10.818Z,99615.03
2017-12-12T21:45:38.303Z,99615.44
2017-12-12T21:48:05.766Z,99621.82
2017-12-12T21:50:33.251Z,99630.20
2017-12-12T21:53:00.763Z,99631.09
2017-12-12T21:55:28.518Z,99645.84
2017-12-12T21:57:56.026Z,99648.40
2017-12-12T22:00:23.608Z,99637.80
2017-12-12T22:02:51.072Z,99654.33
2017-12-12T22:05:18.552Z,99643.80
2017-12-12T22:07:45.995Z,99665.28
2017-12-12T22:10:13.479Z,99664.84
2017-12-12T22:12:41.051Z,99664.05
2017-12-12T22:15:08.534Z,99658.90
2017-12-12T22:17:36.037Z,99665.21
2017-12-12T22:20:03.540Z,99664.02
2017-12-12T22:22:30.998Z,99663.88
2017-12-12T22:24:58.485Z,99658.37
2017-12-12T22:27:25.941Z,99654.62
2017-12-12T22:29:53.390Z,99651.83
2017-12-12T22:32:21.006Z,99653.86
2017-12-12T22:34:51.922Z,99650.02
2017-12-12T22:37:19.421Z,99666.53
2017-12-12T22:39:46.945Z,99652.14
2017-12-12T22:42:14.430Z,99669.45
2017-12-12T22:44:41.914Z,99669.02
2017-12-12T22:47:09.374Z,99676.57
2017-12-12T22:49:36.864Z,99682.06
2017-12-12T22:52:04.312Z,99686.28
2017-12-12T22:54:31.800Z,99689.22
2017-12-12T22:56:59.251Z,99693.83
2017-12-12T22:59:27.810Z,99692.14
2017-12-12T23:01:55.323Z,99692.17
2017-12-12T23:04:22.783Z,99696.39
2017-12-12T23:06:50.237Z,99686.38
2017-12-12T23:09:17.740Z,99683.03
2017-12-12T23:11:45.191Z,99689.73
2017-12-12T23:14:12.704Z,99689.77
2017-12-12T23:16:40.992Z,99690.08
2017-12-12T23:19:08.460Z,99694.30
2017-12-12T23:21:38.618Z,99703.10
2017-12-12T23:24:06.151Z,99712.50
2017-12-12T23:26:35.207Z,99700.64
2017-12-12T23:29:02.796Z,99715.45
2017-12-12T23:31:30.288Z,99711.22
2017-12-12T23:33:57.756Z,99707.37
2017-12-12T23:36:25.388Z,99704.84
2017-12-12T23:38:52.852Z,99700.31
2017-12-12T23:41:20.292Z,99695.17
2017-12-12T23:43:47.777Z,99693.47
2017-12-12T23:46:15.331Z,99710.83
2017-12-12T23:48:42.788Z,99696.55
2017-12-12T23:51:10.242Z,99701.16
2017-12-12T23:53:37.719Z,99693.09
2017-12-12T23:56:05.173Z,99694.80
2017-12-12T23:58:32.740Z,99688.84
